sensor_id;sensor_type;location;lat;lon;timestamp;pressure;altitude;pressure_sealevel;temperature;humidity
23118;BME280;11728;50.624;6.014;2023-01-27T00:00:10;98870.50;;;3.54;100.00
23118;BME280;11728;50.624;6.014;2023-01-27T00:05:15;98873.97;;;3.53;100.00
23118;BME280;11728;50.624;6.014;2023-01-27T00:10:18;98863.47;;;3.50;100.00
23118;BME280;11728;50.624;6.014;2023-01-27T00:15:19;98870.44;;;3.48;100.00
23118;BME280;11728;50.624;6.014;2023-01-27T00:20:20;98870.44;;;3.48;100.00
23118;BME280;11728;50.624;6.014;2023-01-27T00:25:39;98870.44;;;3.50;100.00
23118;BME280;11728;50.624;6.014;2023-01-27T00:30:39;98871.38;;;3.53;100.00
23118;BME280;11728;50.624;6.014;2023-01-27T00:35:40;98878.34;;;3.54;100.00
23118;BME280;11728;50.624;6.014;2023-01-27T00:40:40;98870.50;;;3.54;100.00
23118;BME280;11728;50.624;6.014;2023-01-27T00:46:01;98868.75;;;3.52;100.00
23118;BME280;11728;50.624;6.014;2023-01-27T00:51:02;98873.91;;;3.50;100.00
23118;BME280;11728;50.624;6.014;2023-01-27T00:56:03;98873.00;;;3.47;100.00
23118;BME280;11728;50.624;6.014;2023-01-27T01:01:06;98877.31;;;3.43;100.00
23118;BME280;11728;50.624;6.014;2023-01-27T01:06:09;98869.47;;;3.42;100.00
23118;BME280;11728;50.624;6.014;2023-01-27T01:11:12;98872.00;;;3.37;100.00
23118;BME280;11728;50.624;6.014;2023-01-27T01:16:16;98880.69;;;3.36;100.00
23118;BME280;11728;50.624;6.014;2023-01-27T01:21:17;98880.69;;;3.36;100.00
23118;BME280;11728;50.624;6.014;2023-01-27T01:26:17;98870.22;;;3.33;100.00
23118;BME280;11728;50.624;6.014;2023-01-27T01:31:19;98884.06;;;3.29;100.00
23118;BME280;11728;50.624;6.014;2023-01-27T01:36:20;98887.50;;;3.25;100.00
23118;BME280;11728;50.624;6.014;2023-01-27T01:41:21;98881.34;;;3.22;100.00
23118;BME280;11728;50.624;6.014;2023-01-27T01:46:21;98897.88;;;3.22;100.00
23118;BME280;11728;50.624;6.014;2023-01-27T01:56:41;98897.88;;;3.22;100.00
23118;BME280;11728;50.624;6.014;2023-01-27T02:01:44;98894.34;;;3.19;100.00
23118;BME280;11728;50.624;6.014;2023-01-27T02:06:55;98896.94;;;3.19;100.00
23118;BME280;11728;50.624;6.014;2023-01-27T02:11:58;98899.53;;;3.17;100.00
23118;BME280;11728;50.624;6.014;2023-01-27T02:16:59;98897.78;;;3.16;100.00
23118;BME280;11728;50.624;6.014;2023-01-27T02:22:03;98887.34;;;3.16;100.00
23118;BME280;11728;50.624;6.014;2023-01-27T02:27:07;98893.41;;;3.14;100.00
23118;BME280;11728;50.624;6.014;2023-01-27T02:32:07;98896.84;;;3.11;100.00
23118;BME280;11728;50.624;6.014;2023-01-27T02:37:08;98891.56;;;3.08;100.00
23118;BME280;11728;50.624;6.014;2023-01-27T02:42:11;98894.16;;;3.08;100.00
23118;BME280;11728;50.624;6.014;2023-01-27T02:47:13;98899.44;;;3.11;100.00
23118;BME280;11728;50.624;6.014;2023-01-27T02:52:14;98899.38;;;3.08;100.00
23118;BME280;11728;50.624;6.014;2023-01-27T02:57:15;98898.47;;;3.06;100.00
23118;BME280;11728;50.624;6.014;2023-01-27T03:02:27;98892.38;;;3.04;100.00
23118;BME280;11728;50.624;6.014;2023-01-27T03:07:29;98891.53;;;3.05;100.00
23118;BME280;11728;50.624;6.014;2023-01-27T03:12:30;98897.59;;;3.04;100.00
23118;BME280;11728;50.624;6.014;2023-01-27T03:17:30;98892.38;;;3.04;100.00
23118;BME280;11728;50.624;6.014;2023-01-27T03:22:49;98892.31;;;3.02;100.00
23118;BME280;11728;50.624;6.014;2023-01-27T03:27:51;98892.31;;;3.02;100.00
23118;BME280;11728;50.624;6.014;2023-01-27T03:33:21;98898.44;;;3.02;100.00
23118;BME280;11728;50.624;6.014;2023-01-27T03:38:27;98898.38;;;3.01;100.00
23118;BME280;11728;50.624;6.014;2023-01-27T03:43:46;98907.94;;;2.99;100.00
23118;BME280;11728;50.624;6.014;2023-01-27T03:49:06;98904.41;;;2.97;100.00
23118;BME280;11728;50.624;6.014;2023-01-27T03:54:06;98907.88;;;2.96;100.00
23118;BME280;11728;50.624;6.014;2023-01-27T03:59:07;98914.84;;;2.97;100.00
23118;BME280;11728;50.624;6.014;2023-01-27T04:04:08;98920.00;;;2.94;100.00
23118;BME280;11728;50.624;6.014;2023-01-27T04:09:33;98923.50;;;2.94;100.00
23118;BME280;11728;50.624;6.014;2023-01-27T04:14:38;98921.69;;;2.92;100.00
23118;BME280;11728;50.624;6.014;2023-01-27T04:19:41;98921.75;;;2.93;100.00
23118;BME280;11728;50.624;6.014;2023-01-27T04:24:43;98930.41;;;2.91;100.00
23118;BME280;11728;50.624;6.014;2023-01-27T04:29:43;98922.53;;;2.89;100.00
23118;BME280;11728;50.624;6.014;2023-01-27T04:34:44;98928.63;;;2.90;100.00
23118;BME280;11728;50.624;6.014;2023-01-27T04:39:44;98937.34;;;2.92;100.00
23118;BME280;11728;50.624;6.014;2023-01-27T04:44:45;98936.41;;;2.87;100.00
23118;BME280;11728;50.624;6.014;2023-01-27T04:49:45;98950.91;;;2.73;100.00
23118;BME280;11728;50.624;6.014;2023-01-27T04:54:46;98955.88;;;2.59;100.00
23118;BME280;11728;50.624;6.014;2023-01-27T04:59:47;98954.91;;;2.53;100.00
23118;BME280;11728;50.624;6.014;2023-01-27T05:04:49;98963.59;;;2.55;100.00
23118;BME280;11728;50.624;6.014;2023-01-27T05:09:49;98963.66;;;2.58;100.00
23118;BME280;11728;50.624;6.014;2023-01-27T05:14:50;98969.69;;;2.54;100.00
23118;BME280;11728;50.624;6.014;2023-01-27T05:19:50;98973.06;;;2.50;100.00
23118;BME280;11728;50.624;6.014;2023-01-27T05:24:50;98979.00;;;2.41;100.00
23118;BME280;11728;50.624;6.014;2023-01-27T05:29:51;98979.66;;;2.33;100.00
23118;BME280;11728;50.624;6.014;2023-01-27T05:34:52;98984.84;;;2.30;100.00
23118;BME280;11728;50.624;6.014;2023-01-27T05:39:52;98993.56;;;2.32;100.00
23118;BME280;11728;50.624;6.014;2023-01-27T05:44:53;98984.00;;;2.32;100.00
23118;BME280;11728;50.624;6.014;2023-01-27T05:49:53;98987.53;;;2.34;100.00
23118;BME280;11728;50.624;6.014;2023-01-27T05:54:53;98988.41;;;2.35;100.00
23118;BME280;11728;50.624;6.014;2023-01-27T05:59:54;98981.44;;;2.34;100.00
23118;BME280;11728;50.624;6.014;2023-01-27T06:04:54;98983.19;;;2.35;100.00
23118;BME280;11728;50.624;6.014;2023-01-27T06:09:55;98979.66;;;2.33;100.00
23118;BME280;11728;50.624;6.014;2023-01-27T06:14:56;98985.03;;;2.39;100.00
23118;BME280;11728;50.624;6.014;2023-01-27T06:19:59;98992.06;;;2.44;100.00
23118;BME280;11728;50.624;6.014;2023-01-27T06:24:59;98984.31;;;2.47;100.00
23118;BME280;11728;50.624;6.014;2023-01-27T06:30:00;98983.47;;;2.48;100.00
23118;BME280;11728;50.624;6.014;2023-01-27T06:35:01;98991.28;;;2.48;100.00
23118;BME280;11728;50.624;6.014;2023-01-27T06:40:02;98993.91;;;2.50;100.00
23118;BME280;11728;50.624;6.014;2023-01-27T06:45:10;98996.53;;;2.50;100.00
23118;BME280;11728;50.624;6.014;2023-01-27T06:50:10;99006.09;;;2.51;100.00
23118;BME280;11728;50.624;6.014;2023-01-27T06:55:11;99016.63;;;2.55;100.00
23118;BME280;11728;50.624;6.014;2023-01-27T07:00:12;99021.84;;;2.57;100.00
23118;BME280;11728;50.624;6.014;2023-01-27T07:05:14;99025.38;;;2.59;100.00
23118;BME280;11728;50.624;6.014;2023-01-27T07:10:15;99025.50;;;2.65;100.00
23118;BME280;11728;50.624;6.014;2023-01-27T07:15:16;99037.75;;;2.69;100.00
23118;BME280;11728;50.624;6.014;2023-01-27T07:20:17;99040.28;;;2.66;100.00
23118;BME280;11728;50.624;6.014;2023-01-27T07:25:17;99042.91;;;2.66;100.00
23118;BME280;11728;50.624;6.014;2023-01-27T07:30:18;99041.13;;;2.65;100.00
23118;BME280;11728;50.624;6.014;2023-01-27T07:35:18;99041.13;;;2.63;100.00
23118;BME280;11728;50.624;6.014;2023-01-27T07:40:19;99048.03;;;2.63;100.00
23118;BME280;11728;50.624;6.014;2023-01-27T07:45:19;99046.38;;;2.66;100.00
23118;BME280;11728;50.624;6.014;2023-01-27T07:50:20;99041.22;;;2.68;100.00
23118;BME280;11728;50.624;6.014;2023-01-27T07:55:20;99047.31;;;2.70;100.00
23118;BME280;11728;50.624;6.014;2023-01-27T08:00:21;99056.88;;;2.71;100.00
23118;BME280;11728;50.624;6.014;2023-01-27T08:05:22;99052.56;;;2.71;100.00
23118;BME280;11728;50.624;6.014;2023-01-27T08:10:23;99053.50;;;2.75;100.00
23118;BME280;11728;50.624;6.014;2023-01-27T08:15:23;99049.19;;;2.77;100.00
23118;BME280;11728;50.624;6.014;2023-01-27T08:20:26;99066.66;;;2.79;100.00
23118;BME280;11728;50.624;6.014;2023-01-27T08:25:26;99070.97;;;2.80;100.00
23118;BME280;11728;50.624;6.014;2023-01-27T08:30:27;99062.28;;;2.80;100.00
23118;BME280;11728;50.624;6.014;2023-01-27T08:35:27;99066.75;;;2.84;100.00
23118;BME280;11728;50.624;6.014;2023-01-27T08:40:28;99066.00;;;2.91;100.00
23118;BME280;11728;50.624;6.014;2023-01-27T08:45:28;99073.03;;;2.95;100.00
23118;BME280;11728;50.624;6.014;2023-01-27T08:50:29;99078.34;;;3.01;100.00
23118;BME280;11728;50.624;6.014;2023-01-27T08:55:31;99072.28;;;3.02;100.00
23118;BME280;11728;50.624;6.014;2023-01-27T09:00:32;99072.28;;;3.00;100.00
23118;BME280;11728;50.624;6.014;2023-01-27T09:05:34;99081.00;;;3.02;100.00
23118;BME280;11728;50.624;6.014;2023-01-27T09:10:37;99076.66;;;3.03;100.00
23118;BME280;11728;50.624;6.014;2023-01-27T09:15:38;99083.56;;;3.01;100.00
23118;BME280;11728;50.624;6.014;2023-01-27T09:20:39;99080.22;;;3.07;100.00
23118;BME280;11728;50.624;6.014;2023-01-27T09:25:40;99088.16;;;3.13;100.00
23118;BME280;11728;50.624;6.014;2023-01-27T09:30:44;99090.91;;;3.19;100.00
23118;BME280;11728;50.624;6.014;2023-01-27T09:35:53;99097.00;;;3.21;100.00
23118;BME280;11728;50.624;6.014;2023-01-27T09:41:22;99103.03;;;3.17;100.00
23118;BME280;11728;50.624;6.014;2023-01-27T09:57:23;99094.47;;;3.26;100.00
23118;BME280;11728;50.624;6.014;2023-01-27T10:13:12;99109.25;;;3.24;100.00
23118;BME280;11728;50.624;6.014;2023-01-27T10:18:32;99105.78;;;3.25;100.00
23118;BME280;11728;50.624;6.014;2023-01-27T10:28:56;99118.13;;;3.33;100.00
23118;BME280;11728;50.624;6.014;2023-01-27T10:34:25;99115.53;;;3.33;100.00
23118;BME280;11728;50.624;6.014;2023-01-27T10:50:56;99125.41;;;3.49;100.00
23118;BME280;11728;50.624;6.014;2023-01-27T10:55:48;99122.72;;;3.48;100.00
23118;BME280;11728;50.624;6.014;2023-01-27T11:00:53;99124.50;;;3.50;100.00
23118;BME280;11728;50.624;6.014;2023-01-27T11:05:58;99123.72;;;3.54;100.00
23118;BME280;11728;50.624;6.014;2023-01-27T11:11:05;99118.50;;;3.54;100.00
23118;BME280;11728;50.624;6.014;2023-01-27T11:16:26;99124.72;;;3.61;100.00
23118;BME280;11728;50.624;6.014;2023-01-27T11:21:31;99104.72;;;3.61;100.00
23118;BME280;11728;50.624;6.014;2023-01-27T11:26:39;99111.03;;;3.75;100.00
23118;BME280;11728;50.624;6.014;2023-01-27T11:36:48;99105.97;;;3.84;100.00
23118;BME280;11728;50.624;6.014;2023-01-27T11:41:52;99095.53;;;3.84;100.00
23118;BME280;11728;50.624;6.014;2023-01-27T11:46:54;99092.97;;;3.87;100.00
23118;BME280;11728;50.624;6.014;2023-01-27T11:52:01;99089.47;;;3.86;100.00
23118;BME280;11728;50.624;6.014;2023-01-27T11:57:14;99083.47;;;3.90;100.00
23118;BME280;11728;50.624;6.014;2023-01-27T12:02:26;99087.03;;;3.97;100.00
23118;BME280;11728;50.624;6.014;2023-01-27T12:07:51;99094.06;;;4.01;100.00
23118;BME280;11728;50.624;6.014;2023-01-27T12:12:54;99079.28;;;4.03;100.00
23118;BME280;11728;50.624;6.014;2023-01-27T12:18:13;99074.22;;;4.13;100.00
23118;BME280;11728;50.624;6.014;2023-01-27T12:23:18;99073.50;;;4.23;100.00
23118;BME280;11728;50.624;6.014;2023-01-27T12:28:34;99065.00;;;4.38;100.00
23118;BME280;11728;50.624;6.014;2023-01-27T12:33:37;99063.44;;;4.52;100.00
23118;BME280;11728;50.624;6.014;2023-01-27T12:38:44;99062.56;;;4.51;100.00
23118;BME280;11728;50.624;6.014;2023-01-27T12:44:07;99057.13;;;4.36;100.00
23118;BME280;11728;50.624;6.014;2023-01-27T12:49:09;99048.34;;;4.30;100.00
23118;BME280;11728;50.624;6.014;2023-01-27T12:54:40;99049.22;;;4.32;100.00
23118;BME280;11728;50.624;6.014;2023-01-27T12:59:47;99051.75;;;4.26;100.00
23118;BME280;11728;50.624;6.014;2023-01-27T13:05:01;99047.38;;;4.25;100.00
23118;BME280;11728;50.624;6.014;2023-01-27T13:10:05;99044.88;;;4.34;100.00
23118;BME280;11728;50.624;6.014;2023-01-27T13:15:23;99048.34;;;4.30;100.00
23118;BME280;11728;50.624;6.014;2023-01-27T13:20:28;99045.72;;;4.30;100.00
23118;BME280;11728;50.624;6.014;2023-01-27T13:30:57;99052.78;;;4.37;100.00
23118;BME280;11728;50.624;6.014;2023-01-27T13:36:25;99053.59;;;4.33;100.00
23118;BME280;11728;50.624;6.014;2023-01-27T13:41:50;99051.81;;;4.32;100.00
23118;BME280;11728;50.624;6.014;2023-01-27T13:46:57;99047.38;;;4.25;100.00
23118;BME280;11728;50.624;6.014;2023-01-27T13:52:00;99060.50;;;4.28;100.00
23118;BME280;11728;50.624;6.014;2023-01-27T14:08:42;99059.56;;;4.23;100.00
23118;BME280;11728;50.624;6.014;2023-01-27T14:13:55;99067.34;;;4.20;100.00
23118;BME280;11728;50.624;6.014;2023-01-27T14:19:08;99071.72;;;4.21;100.00
23118;BME280;11728;50.624;6.014;2023-01-27T14:24:35;99068.19;;;4.16;100.00
23118;BME280;11728;50.624;6.014;2023-01-27T14:29:52;99072.50;;;4.14;100.00
23118;BME280;11728;50.624;6.014;2023-01-27T14:51:32;99088.88;;;4.04;100.00
23118;BME280;11728;50.624;6.014;2023-01-27T15:06:46;99097.47;;;3.97;100.00
23118;BME280;11728;50.624;6.014;2023-01-27T15:22:22;99118.13;;;3.82;100.00
23118;BME280;11728;50.624;6.014;2023-01-27T15:27:30;99130.25;;;3.77;100.00
23118;BME280;11728;50.624;6.014;2023-01-27T15:32:35;99136.41;;;3.82;100.00
23118;BME280;11728;50.624;6.014;2023-01-27T15:37:54;99138.06;;;3.77;100.00
23118;BME280;11728;50.624;6.014;2023-01-27T15:48:17;99146.84;;;3.82;100.00
23118;BME280;11728;50.624;6.014;2023-01-27T15:58:36;99158.88;;;3.73;100.00
23118;BME280;11728;50.624;6.014;2023-01-27T16:03:40;99153.56;;;3.68;100.00
23118;BME280;11728;50.624;6.014;2023-01-27T16:08:55;99160.47;;;3.65;100.00
23118;BME280;11728;50.624;6.014;2023-01-27T16:19:18;99173.53;;;3.66;100.00
23118;BME280;11728;50.624;6.014;2023-01-27T16:24:31;99181.44;;;3.68;100.00
23118;BME280;11728;50.624;6.014;2023-01-27T16:29:43;99185.75;;;3.67;100.00
23118;BME280;11728;50.624;6.014;2023-01-27T16:34:49;99192.75;;;3.70;100.00
23118;BME280;11728;50.624;6.014;2023-01-27T16:40:00;99195.44;;;3.71;100.00
23118;BME280;11728;50.624;6.014;2023-01-27T16:45:26;99199.81;;;3.72;100.00
23118;BME280;11728;50.624;6.014;2023-01-27T16:50:36;99205.69;;;3.62;100.00
23118;BME280;11728;50.624;6.014;2023-01-27T16:55:38;99200.38;;;3.58;100.00
23118;BME280;11728;50.624;6.014;2023-01-27T17:00:39;99216.03;;;3.58;100.00
23118;BME280;11728;50.624;6.014;2023-01-27T17:05:41;99216.97;;;3.61;100.00
23118;BME280;11728;50.624;6.014;2023-01-27T17:10:55;99217.00;;;3.63;100.00
23118;BME280;11728;50.624;6.014;2023-01-27T17:15:58;99223.03;;;3.59;100.00
23118;BME280;11728;50.624;6.014;2023-01-27T17:20:59;99226.56;;;3.61;100.00
23118;BME280;11728;50.624;6.014;2023-01-27T17:26:12;99235.25;;;3.60;100.00
23118;BME280;11728;50.624;6.014;2023-01-27T17:31:22;99233.47;;;3.59;100.00
23118;BME280;11728;50.624;6.014;2023-01-27T17:36:26;99231.69;;;3.56;100.00
23118;BME280;11728;50.624;6.014;2023-01-27T17:46:30;99244.84;;;3.62;100.00
23118;BME280;11728;50.624;6.014;2023-01-27T17:51:35;99243.22;;;3.67;100.00
23118;BME280;11728;50.624;6.014;2023-01-27T17:56:39;99235.47;;;3.73;100.00
23118;BME280;11728;50.624;6.014;2023-01-27T18:01:39;99248.59;;;3.75;100.00
23118;BME280;11728;50.624;6.014;2023-01-27T18:06:41;99257.28;;;3.75;100.00
23118;BME280;11728;50.624;6.014;2023-01-27T18:11:58;99259.91;;;3.77;100.00
23118;BME280;11728;50.624;6.014;2023-01-27T18:17:20;99265.94;;;3.71;100.00
23118;BME280;11728;50.624;6.014;2023-01-27T18:22:23;99266.66;;;3.64;100.00
23118;BME280;11728;50.624;6.014;2023-01-27T18:27:32;99270.84;;;3.56;100.00
23118;BME280;11728;50.624;6.014;2023-01-27T18:32:39;99267.41;;;3.57;100.00
23118;BME280;11728;50.624;6.014;2023-01-27T18:37:50;99270.69;;;3.50;100.00
23118;BME280;11728;50.624;6.014;2023-01-27T18:42:52;99272.31;;;3.42;100.00
23118;BME280;11728;50.624;6.014;2023-01-27T18:47:53;99276.66;;;3.43;100.00
23118;BME280;11728;50.624;6.014;2023-01-27T18:52:54;99280.09;;;3.41;100.00
23118;BME280;11728;50.624;6.014;2023-01-27T18:57:56;99276.66;;;3.43;100.00
23118;BME280;11728;50.624;6.014;2023-01-27T19:02:58;99284.47;;;3.43;100.00
23118;BME280;11728;50.624;6.014;2023-01-27T19:08:00;99281.94;;;3.45;100.00
23118;BME280;11728;50.624;6.014;2023-01-27T19:13:02;99281.97;;;3.48;100.00
23118;BME280;11728;50.624;6.014;2023-01-27T19:18:11;99288.00;;;3.45;100.00
23118;BME280;11728;50.624;6.014;2023-01-27T19:23:15;99289.69;;;3.43;100.00
23118;BME280;11728;50.624;6.014;2023-01-27T19:28:20;99282.69;;;3.41;100.00
23118;BME280;11728;50.624;6.014;2023-01-27T19:33:27;99283.53;;;3.40;100.00
23118;BME280;11728;50.624;6.014;2023-01-27T19:38:28;99286.22;;;3.43;100.00
23118;BME280;11728;50.624;6.014;2023-01-27T19:43:29;99280.91;;;3.38;100.00
23118;BME280;11728;50.624;6.014;2023-01-27T19:48:29;99291.34;;;3.38;100.00
23118;BME280;11728;50.624;6.014;2023-01-27T19:53:30;99295.00;;;3.46;100.00
23118;BME280;11728;50.624;6.014;2023-01-27T19:58:30;99294.19;;;3.50;100.00
23118;BME280;11728;50.624;6.014;2023-01-27T20:03:31;99292.50;;;3.51;100.00
23118;BME280;11728;50.624;6.014;2023-01-27T20:08:31;99303.78;;;3.51;100.00
23118;BME280;11728;50.624;6.014;2023-01-27T20:13:32;99296.75;;;3.47;100.00
23118;BME280;11728;50.624;6.014;2023-01-27T20:18:32;99306.31;;;3.47;100.00
23118;BME280;11728;50.624;6.014;2023-01-27T20:23:33;99308.97;;;3.48;100.00
23118;BME280;11728;50.624;6.014;2023-01-27T20:28:33;99309.78;;;3.46;100.00
23118;BME280;11728;50.624;6.014;2023-01-27T20:33:34;99311.59;;;3.48;100.00
23118;BME280;11728;50.624;6.014;2023-01-27T20:38:34;99313.19;;;3.43;100.00
23118;BME280;11728;50.624;6.014;2023-01-27T20:43:35;99314.84;;;3.40;100.00
23118;BME280;11728;50.624;6.014;2023-01-27T20:48:35;99302.69;;;3.39;100.00
23118;BME280;11728;50.624;6.014;2023-01-27T20:53:37;99310.53;;;3.40;100.00
23118;BME280;11728;50.624;6.014;2023-01-27T20:58:44;99306.16;;;3.39;100.00
23118;BME280;11728;50.624;6.014;2023-01-27T21:03:46;99301.91;;;3.44;100.00
23118;BME280;11728;50.624;6.014;2023-01-27T21:08:48;99307.00;;;3.38;100.00
23118;BME280;11728;50.624;6.014;2023-01-27T21:13:50;99314.78;;;3.35;100.00
23118;BME280;11728;50.624;6.014;2023-01-27T21:18:50;99319.09;;;3.33;100.00
23118;BME280;11728;50.624;6.014;2023-01-27T21:23:52;99315.44;;;3.25;100.00
23118;BME280;11728;50.624;6.014;2023-01-27T21:28:52;99329.22;;;3.21;100.00
23118;BME280;11728;50.624;6.014;2023-01-27T21:33:53;99322.28;;;3.20;100.00
23118;BME280;11728;50.624;6.014;2023-01-27T21:38:53;99330.09;;;3.20;100.00
23118;BME280;11728;50.624;6.014;2023-01-27T21:43:54;99326.56;;;3.18;100.00
23118;BME280;11728;50.624;6.014;2023-01-27T21:49:13;99329.19;;;3.18;100.00
23118;BME280;11728;50.624;6.014;2023-01-27T21:54:14;99318.66;;;3.15;100.00
23118;BME280;11728;50.624;6.014;2023-01-27T21:59:14;99316.91;;;3.14;100.00
23118;BME280;11728;50.624;6.014;2023-01-27T22:04:14;99322.06;;;3.11;100.00
23118;BME280;11728;50.624;6.014;2023-01-27T22:09:17;99315.09;;;3.10;100.00
23118;BME280;11728;50.624;6.014;2023-01-27T22:14:17;99316.84;;;3.11;100.00
23118;BME280;11728;50.624;6.014;2023-01-27T22:19:18;99316.91;;;3.14;100.00
23118;BME280;11728;50.624;6.014;2023-01-27T22:24:18;99319.50;;;3.14;100.00
23118;BME280;11728;50.624;6.014;2023-01-27T22:29:19;99310.00;;;3.16;100.00
23118;BME280;11728;50.624;6.014;2023-01-27T22:34:19;99309.97;;;3.15;100.00
23118;BME280;11728;50.624;6.014;2023-01-27T22:39:20;99309.06;;;3.14;100.00
23118;BME280;11728;50.624;6.014;2023-01-27T22:44:20;99307.19;;;3.07;100.00
23118;BME280;11728;50.624;6.014;2023-01-27T22:49:21;99316.63;;;3.03;100.00
23118;BME280;11728;50.624;6.014;2023-01-27T22:54:21;99315.72;;;3.01;100.00
23118;BME280;11728;50.624;6.014;2023-01-27T22:59:22;99317.44;;;2.99;100.00
23118;BME280;11728;50.624;6.014;2023-01-27T23:04:22;99319.13;;;2.97;100.00
23118;BME280;11728;50.624;6.014;2023-01-27T23:09:23;99322.53;;;2.94;100.00
23118;BME280;11728;50.624;6.014;2023-01-27T23:14:23;99324.22;;;2.92;100.00
23118;BME280;11728;50.624;6.014;2023-01-27T23:19:23;99326.84;;;2.94;100.00
23118;BME280;11728;50.624;6.014;2023-01-27T23:24:24;99319.03;;;2.94;100.00
23118;BME280;11728;50.624;6.014;2023-01-27T23:29:25;99330.28;;;2.93;100.00
23118;BME280;11728;50.624;6.014;2023-01-27T23:34:25;99335.50;;;2.93;100.00
23118;BME280;11728;50.624;6.014;2023-01-27T23:39:26;99330.19;;;2.88;100.00
23118;BME280;11728;50.624;6.014;2023-01-27T23:44:26;99335.34;;;2.85;100.00
23118;BME280;11728;50.624;6.014;2023-01-27T23:49:27;99334.41;;;2.83;100.00
23118;BME280;11728;50.624;6.014;2023-01-27T23:54:27;99327.56;;;2.87;100.00
23118;BME280;11728;50.624;6.014;2023-01-27T23:59:28;99318.81;;;2.85;100.00
